createdAt,value
2019-02-07T00:00:25.253Z,30.03
2019-02-07T00:02:54.283Z,31.10
2019-02-07T00:05:22.908Z,29.93
2019-02-07T00:07:51.461Z,28.40
2019-02-07T00:10:20.721Z,29.00
2019-02-07T00:12:49.419Z,30.13
2019-02-07T00:15:18.081Z,28.47
2019-02-07T00:17:47.000Z,27.80
2019-02-07T00:20:15.918Z,27.47
2019-02-07T00:22:44.497Z,26.60
2019-02-07T00:25:12.994Z,29.00
2019-02-07T00:27:41.441Z,26.80
2019-02-07T00:30:13.171Z,27.00
2019-02-07T00:32:41.719Z,27.50
2019-02-07T00:35:11.344Z,26.10
2019-02-07T00:37:40.504Z,26.53
2019-02-07T00:40:12.343Z,27.67
2019-02-07T00:42:41.281Z,28.33
2019-02-07T00:45:12.751Z,26.73
2019-02-07T00:47:41.419Z,26.20
2019-02-07T00:50:12.152Z,28.83
2019-02-07T00:52:40.861Z,26.77
2019-02-07T00:55:12.367Z,27.60
2019-02-07T00:57:41.806Z,27.80
2019-02-07T01:00:15.696Z,28.67
2019-02-07T01:02:44.264Z,26.40
2019-02-07T01:05:14.816Z,26.77
2019-02-07T01:07:48.582Z,27.70
2019-02-07T01:10:21.459Z,28.87
2019-02-07T01:12:50.471Z,26.60
2019-02-07T01:15:19.821Z,26.33
2019-02-07T01:17:48.395Z,26.80
2019-02-07T01:20:17.121Z,27.80
2019-02-07T01:22:46.385Z,27.60
2019-02-07T01:25:20.239Z,28.17
2019-02-07T01:27:49.062Z,28.40
2019-02-07T01:30:20.407Z,29.37
2019-02-07T01:32:48.971Z,29.87
2019-02-07T01:35:17.840Z,29.17
2019-02-07T01:37:46.869Z,28.33
2019-02-07T01:40:17.555Z,28.47
2019-02-07T01:42:46.470Z,27.80
2019-02-07T01:45:18.972Z,28.10
2019-02-07T01:47:47.837Z,28.70
2019-02-07T01:50:19.038Z,28.07
2019-02-07T01:52:48.163Z,26.93
2019-02-07T01:55:16.741Z,27.77
2019-02-07T01:57:45.463Z,28.23
2019-02-07T02:00:16.520Z,27.90
2019-02-07T02:02:45.817Z,28.20
2019-02-07T02:05:16.552Z,29.03
2019-02-07T02:07:46.236Z,27.37
2019-02-07T02:10:18.893Z,27.47
2019-02-07T02:12:47.968Z,28.97
2019-02-07T02:15:24.598Z,28.60
2019-02-07T02:17:52.180Z,27.87
2019-02-07T02:20:22.584Z,27.57
2019-02-07T02:22:53.193Z,28.07
2019-02-07T02:25:21.877Z,27.20
2019-02-07T02:27:50.745Z,27.30
2019-02-07T02:30:28.305Z,29.33
2019-02-07T02:32:57.227Z,28.53
2019-02-07T02:35:25.995Z,29.37
2019-02-07T02:37:55.063Z,29.10
2019-02-07T02:40:24.367Z,29.83
2019-02-07T02:42:53.184Z,29.47
2019-02-07T02:45:22.579Z,29.17
2019-02-07T02:47:52.287Z,30.20
2019-02-07T02:50:21.363Z,29.47
2019-02-07T02:52:50.064Z,30.13
2019-02-07T02:55:24.444Z,30.23
2019-02-07T02:57:53.548Z,29.27
2019-02-07T03:00:26.618Z,30.50
2019-02-07T03:03:33.118Z,30.53
2019-02-07T03:06:30.243Z,31.83
2019-02-07T03:09:21.228Z,29.87
2019-02-07T03:11:59.262Z,29.37
2019-02-07T03:14:42.312Z,30.07
2019-02-07T03:17:36.441Z,28.83
2019-02-07T03:20:40.798Z,30.50
2019-02-07T03:23:27.467Z,31.27
2019-02-07T03:26:28.360Z,33.30
2019-02-07T03:29:35.675Z,31.60
2019-02-07T03:32:14.407Z,33.00
2019-02-07T03:34:49.904Z,32.43
2019-02-07T03:37:29.028Z,30.73
2019-02-07T03:40:13.072Z,32.40
2019-02-07T03:42:54.190Z,30.07
2019-02-07T03:46:01.975Z,29.23
2019-02-07T03:48:44.618Z,31.30
2019-02-07T03:51:44.133Z,28.10
2019-02-07T03:54:38.206Z,28.03
2019-02-07T03:57:15.031Z,30.07
2019-02-07T04:00:02.181Z,30.13
2019-02-07T04:02:48.038Z,27.23
2019-02-07T04:05:24.436Z,29.50
2019-02-07T04:08:24.468Z,28.70
2019-02-07T04:11:10.903Z,26.00
2019-02-07T04:13:59.135Z,27.40
2019-02-07T04:16:47.255Z,25.77
2019-02-07T04:19:40.088Z,25.93
2019-02-07T04:22:33.944Z,27.83
2019-02-07T04:25:28.283Z,26.40
2019-02-07T04:28:34.698Z,26.83
2019-02-07T04:31:21.990Z,27.27
2019-02-07T04:34:13.063Z,25.87
2019-02-07T04:36:51.863Z,25.77
2019-02-07T04:39:46.887Z,26.23
2019-02-07T04:42:38.623Z,27.87
2019-02-07T04:45:36.344Z,27.07
2019-02-07T04:48:30.895Z,25.30
2019-02-07T04:51:16.929Z,25.77
2019-02-07T04:54:02.024Z,26.50
2019-02-07T04:57:05.257Z,27.03
2019-02-07T04:59:44.072Z,24.20
2019-02-07T05:02:35.349Z,25.97
2019-02-07T05:05:30.926Z,25.33
2019-02-07T05:08:17.976Z,25.53
2019-02-07T05:11:04.498Z,24.73
2019-02-07T05:13:52.179Z,23.43
2019-02-07T05:16:43.669Z,22.27
2019-02-07T05:19:39.569Z,24.47
2019-02-07T05:22:27.472Z,24.07
2019-02-07T05:25:15.543Z,24.73
2019-02-07T05:28:02.535Z,23.63
2019-02-07T05:30:53.102Z,23.63
2019-02-07T05:33:44.303Z,23.67
2019-02-07T05:36:33.746Z,21.30
2019-02-07T05:39:22.673Z,22.70
2019-02-07T05:42:13.005Z,20.50
2019-02-07T05:45:01.096Z,21.53
2019-02-07T05:48:07.871Z,21.33
2019-02-07T05:50:58.830Z,21.30
2019-02-07T05:53:46.180Z,21.37
2019-02-07T05:56:34.627Z,22.33
2019-02-07T05:59:25.887Z,21.53
2019-02-07T06:02:16.812Z,20.50
2019-02-07T06:05:07.660Z,21.67
2019-02-07T06:07:58.213Z,21.43
2019-02-07T06:10:46.411Z,20.80
2019-02-07T06:13:40.735Z,20.37
2019-02-07T06:16:44.001Z,22.53
2019-02-07T06:19:32.295Z,19.10
2019-02-07T06:22:27.291Z,19.73
2019-02-07T06:25:21.894Z,20.10
2019-02-07T06:28:09.898Z,20.27
2019-02-07T06:30:46.810Z,19.00
2019-02-07T06:33:46.781Z,19.43
2019-02-07T06:36:33.868Z,19.40
2019-02-07T06:39:22.448Z,18.70
2019-02-07T06:42:12.443Z,19.50
2019-02-07T06:45:00.630Z,18.10
2019-02-07T06:47:51.822Z,16.97
2019-02-07T06:50:30.111Z,18.83
2019-02-07T06:53:21.130Z,17.67
2019-02-07T06:56:09.107Z,18.50
2019-02-07T06:59:00.222Z,19.03
2019-02-07T07:01:47.504Z,20.67
2019-02-07T07:04:29.473Z,20.93
2019-02-07T07:07:10.568Z,19.83
2019-02-07T07:09:57.097Z,20.40
2019-02-07T07:12:38.661Z,18.27
2019-02-07T07:15:24.329Z,18.10
2019-02-07T07:18:04.138Z,18.53
2019-02-07T07:20:47.775Z,18.67
2019-02-07T07:23:42.123Z,19.57
2019-02-07T07:26:30.405Z,18.33
2019-02-07T07:29:26.645Z,18.40
2019-02-07T07:32:20.996Z,20.47
2019-02-07T07:35:12.002Z,20.10
2019-02-07T07:37:58.896Z,19.83
2019-02-07T07:40:44.989Z,18.30
2019-02-07T07:43:36.152Z,18.20
2019-02-07T07:46:36.416Z,19.17
2019-02-07T07:49:33.827Z,18.70
2019-02-07T07:52:24.769Z,19.10
2019-02-07T07:55:13.104Z,18.70
2019-02-07T07:58:06.537Z,20.13
2019-02-07T08:01:00.812Z,18.37
2019-02-07T08:03:54.694Z,19.67
2019-02-07T08:06:44.629Z,17.43
2019-02-07T08:09:38.540Z,17.43
2019-02-07T08:12:26.649Z,16.37
2019-02-07T08:15:23.556Z,17.33
2019-02-07T08:18:04.951Z,17.23
2019-02-07T08:20:56.295Z,16.07
2019-02-07T08:23:41.701Z,16.57
2019-02-07T08:26:42.037Z,15.67
2019-02-07T08:29:24.190Z,16.83
2019-02-07T08:32:21.485Z,16.33
2019-02-07T08:35:09.857Z,14.97
2019-02-07T08:38:04.342Z,15.10
2019-02-07T08:40:55.521Z,14.70
2019-02-07T08:43:42.059Z,16.37
2019-02-07T08:46:30.218Z,16.07
2019-02-07T08:49:15.509Z,14.10
2019-02-07T08:52:12.692Z,14.83
2019-02-07T08:55:03.628Z,14.97
2019-02-07T08:57:50.516Z,13.23
2019-02-07T09:00:38.647Z,13.63
2019-02-07T09:03:16.439Z,14.50
2019-02-07T09:06:10.481Z,13.37
2019-02-07T09:09:00.369Z,14.70
2019-02-07T09:11:57.721Z,13.47
2019-02-07T09:14:44.654Z,13.67
2019-02-07T09:17:32.876Z,14.53
2019-02-07T09:20:26.588Z,15.13
2019-02-07T09:23:22.062Z,13.53
2019-02-07T09:26:15.971Z,14.17
2019-02-07T09:29:02.615Z,13.70
2019-02-07T09:31:56.329Z,15.37
2019-02-07T09:34:50.394Z,14.23
2019-02-07T09:37:47.487Z,12.23
2019-02-07T09:40:38.605Z,13.07
2019-02-07T09:43:32.296Z,12.93
2019-02-07T09:46:31.049Z,13.50
2019-02-07T09:49:22.084Z,13.73
2019-02-07T09:52:08.561Z,12.93
2019-02-07T09:55:08.306Z,13.30
2019-02-07T09:57:54.865Z,12.87
2019-02-07T10:00:54.974Z,13.13
2019-02-07T10:03:41.695Z,12.63
2019-02-07T10:06:24.959Z,11.97
2019-02-07T10:09:25.406Z,12.60
2019-02-07T10:12:11.820Z,13.27
2019-02-07T10:15:01.392Z,13.70
2019-02-07T10:17:55.774Z,12.67
2019-02-07T10:20:42.689Z,13.60
2019-02-07T10:23:33.791Z,12.83
2019-02-07T10:26:20.520Z,12.47
2019-02-07T10:29:08.966Z,12.40
2019-02-07T10:31:56.145Z,11.67
2019-02-07T10:34:52.912Z,11.70
2019-02-07T10:37:47.186Z,12.23
2019-02-07T10:40:35.814Z,12.07
2019-02-07T10:43:28.828Z,11.83
2019-02-07T10:46:25.458Z,11.90
2019-02-07T10:49:18.078Z,13.30
2019-02-07T10:52:06.340Z,13.90
2019-02-07T10:55:03.554Z,13.83
2019-02-07T10:57:52.821Z,13.63
2019-02-07T11:00:53.362Z,13.93
2019-02-07T11:03:48.293Z,12.50
2019-02-07T11:06:35.426Z,12.73
2019-02-07T11:09:15.341Z,12.30
2019-02-07T11:12:01.389Z,12.20
2019-02-07T11:15:08.998Z,12.57
2019-02-07T11:17:52.861Z,11.97
2019-02-07T11:20:52.947Z,13.13
2019-02-07T11:23:47.286Z,13.00
2019-02-07T11:26:41.368Z,13.23
2019-02-07T11:29:32.311Z,13.37
2019-02-07T11:32:30.227Z,12.53
2019-02-07T11:35:14.953Z,11.97
2019-02-07T11:38:03.341Z,12.70
2019-02-07T11:40:50.137Z,12.23
2019-02-07T11:43:38.257Z,10.43
2019-02-07T11:46:38.816Z,8.73
2019-02-07T11:49:36.947Z,6.33
2019-02-07T11:52:25.780Z,6.53
2019-02-07T11:55:17.016Z,4.97
2019-02-07T11:58:04.183Z,4.07
2019-02-07T12:00:52.264Z,3.83
2019-02-07T12:03:55.849Z,3.37
2019-02-07T12:06:45.379Z,3.73
2019-02-07T12:09:32.134Z,4.80
2019-02-07T12:12:19.094Z,3.83
2019-02-07T12:15:06.065Z,4.00
2019-02-07T12:17:52.976Z,3.40
2019-02-07T12:20:31.130Z,3.10
2019-02-07T12:23:22.841Z,3.57
2019-02-07T12:26:14.067Z,3.67
2019-02-07T12:29:09.077Z,3.27
2019-02-07T12:31:57.366Z,3.03
2019-02-07T12:34:45.403Z,2.73
2019-02-07T12:37:22.795Z,3.13
2019-02-07T12:40:09.127Z,2.50
2019-02-07T12:42:57.275Z,3.03
2019-02-07T12:45:53.698Z,2.70
2019-02-07T12:48:57.106Z,2.30
2019-02-07T12:51:45.203Z,2.90
2019-02-07T12:54:42.342Z,2.73
2019-02-07T12:57:48.386Z,2.30
2019-02-07T13:00:35.675Z,1.97
2019-02-07T13:03:36.408Z,2.03
2019-02-07T13:06:34.275Z,2.97
2019-02-07T13:09:26.755Z,2.73
2019-02-07T13:12:15.696Z,2.13
2019-02-07T13:14:53.964Z,2.13
2019-02-07T13:17:39.193Z,3.00
2019-02-07T13:20:24.098Z,2.93
2019-02-07T13:23:24.507Z,3.00
2019-02-07T13:26:02.034Z,2.70
2019-02-07T13:28:52.877Z,2.70
2019-02-07T13:31:41.201Z,3.03
2019-02-07T13:34:31.938Z,2.57
2019-02-07T13:37:20.120Z,2.73
2019-02-07T13:40:08.109Z,2.70
2019-02-07T13:43:00.009Z,2.53
2019-02-07T13:45:47.148Z,2.70
2019-02-07T13:48:26.963Z,3.47
2019-02-07T13:51:29.487Z,3.30
2019-02-07T13:54:20.472Z,1.97
2019-02-07T13:57:27.228Z,2.13
2019-02-07T14:00:04.699Z,2.43
2019-02-07T14:02:59.276Z,2.73
2019-02-07T14:05:46.045Z,2.73
2019-02-07T14:08:38.339Z,2.80
2019-02-07T14:11:10.392Z,2.53
2019-02-07T14:13:57.233Z,3.30
2019-02-07T14:16:43.653Z,3.30
2019-02-07T14:19:30.744Z,2.93
2019-02-07T14:22:17.909Z,3.10
2019-02-07T14:24:59.746Z,2.37
2019-02-07T14:27:50.769Z,2.87
2019-02-07T14:30:33.677Z,2.90
2019-02-07T14:33:30.613Z,3.10
2019-02-07T14:36:30.181Z,3.07
2019-02-07T14:39:16.855Z,3.33
2019-02-07T14:42:08.058Z,2.63
2019-02-07T14:44:59.216Z,2.63
2019-02-07T14:47:27.820Z,2.37
2019-02-07T14:49:56.392Z,2.83
2019-02-07T14:52:25.373Z,2.70
2019-02-07T14:54:53.891Z,2.53
2019-02-07T14:57:22.503Z,3.27
2019-02-07T14:59:51.350Z,2.97
2019-02-07T15:02:20.457Z,3.23
2019-02-07T15:04:49.224Z,2.63
2019-02-07T15:07:18.245Z,2.80
2019-02-07T15:09:46.740Z,2.73
2019-02-07T15:12:15.375Z,2.40
2019-02-07T15:14:44.018Z,2.80
2019-02-07T15:17:13.010Z,2.77
2019-02-07T15:19:41.490Z,2.70
2019-02-07T15:22:10.112Z,2.70
2019-02-07T15:24:38.697Z,3.17
2019-02-07T15:27:07.322Z,2.80
2019-02-07T15:29:35.935Z,2.73
2019-02-07T15:32:05.144Z,4.00
2019-02-07T15:34:33.931Z,3.20
2019-02-07T15:37:02.766Z,2.37
2019-02-07T15:39:31.306Z,2.73
2019-02-07T15:41:59.994Z,3.00
2019-02-07T15:44:28.760Z,2.73
2019-02-07T15:46:57.479Z,2.43
2019-02-07T15:49:26.616Z,3.23
2019-02-07T15:51:55.393Z,2.80
2019-02-07T15:54:24.248Z,2.60
2019-02-07T15:56:52.916Z,3.27
2019-02-07T15:59:33.168Z,2.93
2019-02-07T16:02:22.230Z,2.50
2019-02-07T16:04:50.947Z,2.87
2019-02-07T16:07:19.578Z,2.53
2019-02-07T16:09:48.262Z,2.27
2019-02-07T16:12:16.876Z,2.93
2019-02-07T16:14:45.839Z,2.90
2019-02-07T16:17:14.424Z,2.50
2019-02-07T16:19:43.087Z,2.33
2019-02-07T16:22:11.687Z,2.50
2019-02-07T16:24:40.150Z,2.33
2019-02-07T16:27:08.951Z,2.73
2019-02-07T16:29:38.694Z,3.00
2019-02-07T16:32:08.003Z,3.00
2019-02-07T16:34:36.575Z,2.57
2019-02-07T16:37:05.306Z,2.40
2019-02-07T16:39:33.895Z,2.40
2019-02-07T16:42:06.436Z,2.27
2019-02-07T16:44:33.157Z,2.40
2019-02-07T16:47:01.887Z,2.80
2019-02-07T16:49:30.344Z,2.13
2019-02-07T16:51:58.910Z,2.97
2019-02-07T16:54:27.680Z,3.33
2019-02-07T16:56:56.363Z,3.37
2019-02-07T16:59:24.980Z,3.10
2019-02-07T17:01:53.856Z,2.70
2019-02-07T17:04:22.376Z,2.50
2019-02-07T17:06:50.990Z,3.00
2019-02-07T17:09:27.460Z,3.10
2019-02-07T17:11:56.025Z,2.80
2019-02-07T17:14:24.815Z,2.40
2019-02-07T17:16:53.515Z,2.20
2019-02-07T17:19:23.269Z,2.20
2019-02-07T17:21:51.856Z,2.70
2019-02-07T17:24:20.492Z,2.63
2019-02-07T17:26:49.407Z,2.50
2019-02-07T17:29:18.564Z,2.50
2019-02-07T17:31:46.996Z,2.77
2019-02-07T17:34:16.111Z,2.23
2019-02-07T17:36:44.550Z,1.97
2019-02-07T17:39:13.073Z,2.00
2019-02-07T17:41:41.671Z,2.33
2019-02-07T17:44:10.264Z,2.17
2019-02-07T17:46:39.277Z,2.10
2019-02-07T17:49:07.896Z,2.00
2019-02-07T17:51:36.946Z,2.40
2019-02-07T17:54:05.524Z,2.27
2019-02-07T17:56:34.122Z,2.40
2019-02-07T17:59:03.042Z,2.20
2019-02-07T18:01:31.869Z,2.03
2019-02-07T18:04:01.429Z,1.90
2019-02-07T18:06:29.971Z,2.00
2019-02-07T18:08:58.608Z,2.93
2019-02-07T18:11:27.290Z,2.83
2019-02-07T18:13:55.822Z,1.77
2019-02-07T18:16:25.736Z,1.83
2019-02-07T18:18:54.830Z,2.33
2019-02-07T18:21:33.671Z,2.00
2019-02-07T18:23:53.576Z,2.93
2019-02-07T18:26:22.375Z,2.80
2019-02-07T18:28:50.950Z,3.13
2019-02-07T18:31:19.539Z,2.60
2019-02-07T18:33:48.516Z,1.97
2019-02-07T18:36:17.205Z,2.77
2019-02-07T18:38:45.814Z,2.37
2019-02-07T18:41:14.571Z,2.60
2019-02-07T18:43:43.234Z,1.90
2019-02-07T18:46:11.827Z,1.67
2019-02-07T18:48:40.350Z,2.60
2019-02-07T18:51:09.966Z,2.20
2019-02-07T18:53:38.720Z,1.93
2019-02-07T18:56:07.701Z,2.27
2019-02-07T18:58:36.328Z,1.80
2019-02-07T19:01:04.938Z,2.07
2019-02-07T19:03:33.474Z,2.10
2019-02-07T19:06:02.249Z,1.93
2019-02-07T19:08:31.191Z,1.60
2019-02-07T19:10:59.880Z,1.93
2019-02-07T19:13:29.009Z,2.00
2019-02-07T19:16:07.073Z,2.17
2019-02-07T19:18:35.742Z,1.80
2019-02-07T19:21:04.705Z,1.77
2019-02-07T19:23:33.425Z,1.43
2019-02-07T19:26:02.031Z,2.10
2019-02-07T19:28:31.965Z,1.53
2019-02-07T19:31:00.831Z,1.63
2019-02-07T19:33:30.097Z,1.93
2019-02-07T19:35:59.208Z,2.00
2019-02-07T19:38:27.938Z,1.50
2019-02-07T19:40:57.029Z,1.17
2019-02-07T19:43:25.884Z,1.20
2019-02-07T19:45:54.560Z,1.30
2019-02-07T19:48:23.294Z,1.50
2019-02-07T19:50:51.961Z,1.33
2019-02-07T19:53:20.934Z,1.27
2019-02-07T19:55:49.564Z,1.37
2019-02-07T19:58:18.198Z,1.13
2019-02-07T20:00:46.741Z,1.90
2019-02-07T20:03:15.387Z,1.23
2019-02-07T20:05:44.678Z,1.40
2019-02-07T20:08:13.756Z,1.20
2019-02-07T20:10:42.466Z,1.37
2019-02-07T20:13:11.280Z,1.00
2019-02-07T20:15:41.862Z,0.67
2019-02-07T20:18:12.050Z,0.73
2019-02-07T20:20:41.530Z,1.10
2019-02-07T20:23:10.253Z,1.10
2019-02-07T20:25:39.405Z,0.80
2019-02-07T20:28:08.410Z,1.40
2019-02-07T20:30:40.759Z,1.00
2019-02-07T20:33:10.274Z,0.80
2019-02-07T20:35:39.653Z,0.90
2019-02-07T20:38:10.138Z,1.40
2019-02-07T20:40:39.108Z,0.70
2019-02-07T20:43:08.137Z,1.37
2019-02-07T20:45:36.893Z,1.13
2019-02-07T20:48:07.327Z,0.97
2019-02-07T20:50:36.207Z,0.90
2019-02-07T20:53:05.266Z,1.60
2019-02-07T20:55:34.240Z,1.00
2019-02-07T20:58:03.467Z,1.33
2019-02-07T21:00:34.681Z,2.20
2019-02-07T21:03:04.273Z,1.50
2019-02-07T21:05:35.641Z,1.37
2019-02-07T21:08:04.758Z,2.17
2019-02-07T21:10:34.662Z,1.90
2019-02-07T21:13:05.503Z,1.90
2019-02-07T21:15:35.585Z,1.63
2019-02-07T21:18:05.011Z,1.30
2019-02-07T21:20:33.790Z,1.20
2019-02-07T21:23:02.664Z,1.80
2019-02-07T21:25:47.391Z,1.40
2019-02-07T21:28:16.245Z,1.30
2019-02-07T21:30:44.900Z,1.73
2019-02-07T21:33:13.864Z,1.40
2019-02-07T21:35:42.409Z,1.77
2019-02-07T21:38:11.653Z,1.80
2019-02-07T21:40:40.512Z,1.40
2019-02-07T21:43:09.111Z,1.60
2019-02-07T21:45:37.744Z,1.30
2019-02-07T21:48:10.044Z,1.30
2019-02-07T21:50:38.647Z,1.50
2019-02-07T21:53:07.291Z,1.90
2019-02-07T21:55:35.949Z,1.30
2019-02-07T21:58:06.279Z,1.37
2019-02-07T22:00:38.404Z,1.47
2019-02-07T22:03:09.823Z,1.40
2019-02-07T22:05:38.835Z,1.20
2019-02-07T22:08:08.435Z,1.73
2019-02-07T22:10:37.149Z,1.30
2019-02-07T22:13:06.107Z,1.50
2019-02-07T22:15:34.684Z,1.57
2019-02-07T22:18:04.239Z,1.83
2019-02-07T22:20:32.691Z,1.70
2019-02-07T22:23:01.219Z,2.40
2019-02-07T22:25:29.875Z,2.60
2019-02-07T22:27:58.254Z,1.27
2019-02-07T22:30:31.312Z,1.40
2019-02-07T22:33:01.128Z,1.70
2019-02-07T22:35:30.357Z,1.23
2019-02-07T22:38:00.071Z,1.77
2019-02-07T22:40:28.628Z,1.60
2019-02-07T22:42:59.420Z,1.80
2019-02-07T22:45:28.773Z,2.10
2019-02-07T22:47:57.829Z,1.57
2019-02-07T22:50:28.104Z,1.73
2019-02-07T22:52:57.418Z,2.10
2019-02-07T22:55:26.254Z,1.20
2019-02-07T22:57:55.073Z,1.47
2019-02-07T23:01:17.126Z,1.80
2019-02-07T23:03:51.775Z,1.57
2019-02-07T23:06:20.709Z,1.70
2019-02-07T23:08:49.281Z,1.60
2019-02-07T23:11:18.238Z,2.30
2019-02-07T23:13:46.905Z,1.80
2019-02-07T23:16:16.204Z,2.43
2019-02-07T23:18:45.255Z,1.83
2019-02-07T23:21:14.406Z,2.00
2019-02-07T23:23:43.286Z,1.80
2019-02-07T23:26:11.999Z,2.47
2019-02-07T23:28:40.670Z,2.13
2019-02-07T23:31:09.983Z,2.53
2019-02-07T23:33:38.813Z,2.20
2019-02-07T23:36:09.241Z,2.30
2019-02-07T23:38:38.351Z,2.40
2019-02-07T23:41:09.030Z,3.10
2019-02-07T23:43:45.687Z,2.60
2019-02-07T23:46:11.136Z,2.87
2019-02-07T23:48:40.044Z,2.73
2019-02-07T23:51:09.164Z,2.83
2019-02-07T23:53:38.233Z,2.70
2019-02-07T23:56:07.458Z,2.50
2019-02-07T23:58:36.383Z,2.77
